Archival Weather

Republic

Farmingdale, New York (KFRG)

Report from: Wednesday, January 24, 2024 1:53 PM EST
Current time: Monday, June 17, 2024 4:42 AM EDT

Current weather – Weather history – Daily summaries
Weather forecast

Present weatherMist
Temperature6.7°C (44.1°F)
Wind chill5.3°C (41.5°F)
Dew point6.1°C (43.0°F)
Winds 4 kts (2.1 m/s, 4.6 mph) South-Southeast (160°)
Visibility3960 ft. (1.2 km)
Clouds Ceiling: Overcast 300 ft. (91 m)
Altimeter30.43 in.Hg (1030 mB)
Relative humidity96 %
Density altitude-1,450 ft. (-442 m)
Sea-level pressure103.1 kPa (1031 mB, 30.43 in.Hg)
Remarks Automated weather observing station with precipitation discriminator
Surface visibility
Flight conditions Low Instrument Meteorological Conditions
Raw dataKFRG 241853Z 16004KT 3/4SM BR OVC003 07/06 A3043 RMK AO2 SFC VIS 1 1/4 SLP306 T00670061
An error has occurred. This application may no longer respond until reloaded. Reload 🗙